createdAt,value
2019-02-03T00:01:39.344Z,100400.97
2019-02-03T00:03:43.511Z,100395.20
2019-02-03T00:05:45.179Z,100392.16
2019-02-03T00:07:46.544Z,100392.55
2019-02-03T00:09:47.929Z,100391.15
2019-02-03T00:11:49.354Z,100391.84
2019-02-03T00:13:50.781Z,100397.67
2019-02-03T00:15:52.265Z,100393.34
2019-02-03T00:17:53.699Z,100399.14
2019-02-03T00:19:55.365Z,100390.97
2019-02-03T00:21:56.758Z,100391.45
2019-02-03T00:23:58.218Z,100402.27
2019-02-03T00:25:59.709Z,100399.18
2019-02-03T00:28:01.098Z,100406.05
2019-02-03T00:30:10.281Z,100399.73
2019-02-03T00:32:11.654Z,100395.62
2019-02-03T00:34:13.027Z,100393.23
2019-02-03T00:36:14.642Z,100389.94
2019-02-03T00:38:22.916Z,100392.17
2019-02-03T00:40:19.336Z,100401.30
2019-02-03T00:42:20.838Z,100392.87
2019-02-03T00:44:22.277Z,100390.81
2019-02-03T00:46:23.896Z,100393.45
2019-02-03T00:48:25.592Z,100397.67
2019-02-03T00:50:27.165Z,100402.48
2019-02-03T00:52:28.577Z,100408.27
2019-02-03T00:54:30.051Z,100413.03
2019-02-03T00:56:31.530Z,100410.98
2019-02-03T00:58:33.225Z,100408.27
2019-02-03T01:00:34.699Z,100412.16
2019-02-03T01:02:36.080Z,100414.27
2019-02-03T01:04:37.520Z,100416.27
2019-02-03T01:06:39.217Z,100426.77
2019-02-03T01:08:40.686Z,100423.03
2019-02-03T01:10:42.268Z,100426.27
2019-02-03T01:12:43.862Z,100428.26
2019-02-03T01:14:45.428Z,100432.59
2019-02-03T01:16:46.837Z,100439.84
2019-02-03T01:18:48.203Z,100438.91
2019-02-03T01:20:49.569Z,100441.41
2019-02-03T01:22:51.081Z,100434.92
2019-02-03T01:24:53.253Z,100438.55
2019-02-03T01:26:54.631Z,100443.94
2019-02-03T01:28:56.053Z,100440.76
2019-02-03T01:30:57.504Z,100438.16
2019-02-03T01:32:59.167Z,100440.91
2019-02-03T01:35:00.600Z,100442.12
2019-02-03T01:37:02.245Z,100442.64
2019-02-03T01:39:06.617Z,100447.67
2019-02-03T01:41:08.157Z,100442.15
2019-02-03T01:43:09.933Z,100449.77
2019-02-03T01:45:19.172Z,100448.81
2019-02-03T01:47:20.764Z,100447.13
2019-02-03T01:49:22.139Z,100445.62
2019-02-03T01:51:23.517Z,100439.73
2019-02-03T01:53:25.229Z,100437.72
2019-02-03T01:55:26.609Z,100429.66
2019-02-03T01:57:27.987Z,100433.87
2019-02-03T01:59:29.405Z,100437.87
2019-02-03T02:01:30.785Z,100433.07
2019-02-03T02:03:32.147Z,100423.89
2019-02-03T02:05:33.910Z,100424.31
2019-02-03T02:07:35.266Z,100421.62
2019-02-03T02:09:36.639Z,100422.97
2019-02-03T02:11:38.630Z,100419.98
2019-02-03T02:13:40.007Z,100417.83
2019-02-03T02:15:41.369Z,100411.83
2019-02-03T02:17:42.887Z,100414.01
2019-02-03T02:19:44.477Z,100416.14
2019-02-03T02:21:45.858Z,100418.38
2019-02-03T02:23:47.215Z,100423.28
2019-02-03T02:25:48.633Z,100424.47
2019-02-03T02:27:50.086Z,100429.60
2019-02-03T02:29:51.590Z,100439.02
2019-02-03T02:31:53.409Z,100446.36
2019-02-03T02:33:54.765Z,100452.27
2019-02-03T02:35:56.156Z,100462.05
2019-02-03T02:38:06.412Z,100463.45
2019-02-03T02:40:12.080Z,100464.42
2019-02-03T02:42:04.918Z,100468.03
2019-02-03T02:44:06.273Z,100470.70
2019-02-03T02:46:07.700Z,100468.49
2019-02-03T02:48:09.075Z,100472.04
2019-02-03T02:50:27.216Z,100470.31
2019-02-03T02:52:28.740Z,100475.29
2019-02-03T02:54:30.128Z,100472.80
2019-02-03T02:56:31.661Z,100479.19
2019-02-03T02:58:33.107Z,100485.24
2019-02-03T03:00:34.464Z,100486.53
2019-02-03T03:02:35.841Z,100490.80
2019-02-03T03:04:37.260Z,100495.83
2019-02-03T03:06:38.620Z,100501.02
2019-02-03T03:08:40.001Z,100506.70
2019-02-03T03:10:41.421Z,100503.13
2019-02-03T03:12:42.981Z,100504.87
2019-02-03T03:14:44.566Z,100512.48
2019-02-03T03:16:46.268Z,100523.81
2019-02-03T03:18:47.689Z,100525.88
2019-02-03T03:20:49.052Z,100523.39
2019-02-03T03:22:50.637Z,100528.58
2019-02-03T03:24:52.056Z,100535.13
2019-02-03T03:26:53.494Z,100535.84
2019-02-03T03:28:54.913Z,100539.07
2019-02-03T03:30:56.299Z,100547.95
2019-02-03T03:32:58.153Z,100549.83
2019-02-03T03:34:59.966Z,100555.77
2019-02-03T03:37:01.332Z,100557.19
2019-02-03T03:39:06.608Z,100558.22
2019-02-03T03:41:08.007Z,100554.83
2019-02-03T03:43:09.384Z,100558.66
2019-02-03T03:45:11.564Z,100559.34
2019-02-03T03:47:13.272Z,100563.98
2019-02-03T03:49:14.657Z,100568.11
2019-02-03T03:51:16.029Z,100570.21
2019-02-03T03:53:17.777Z,100577.45
2019-02-03T03:55:19.139Z,100578.55
2019-02-03T03:57:20.516Z,100580.82
2019-02-03T03:59:21.952Z,100579.50
2019-02-03T04:01:23.319Z,100587.38
2019-02-03T04:03:24.683Z,100589.78
2019-02-03T04:05:26.103Z,100590.77
2019-02-03T04:07:27.480Z,100594.07
2019-02-03T04:09:28.843Z,100598.41
2019-02-03T04:11:30.756Z,100599.47
2019-02-03T04:13:32.173Z,100604.17
2019-02-03T04:15:33.535Z,100601.98
2019-02-03T04:17:34.901Z,100594.89
2019-02-03T04:19:36.358Z,100594.93
2019-02-03T04:21:37.713Z,100596.17
2019-02-03T04:23:39.075Z,100595.58
2019-02-03T04:25:40.505Z,100602.36
2019-02-03T04:27:42.302Z,100599.06
2019-02-03T04:29:43.888Z,100600.08
2019-02-03T04:31:45.263Z,100602.51
2019-02-03T04:33:46.728Z,100598.66
2019-02-03T04:35:48.089Z,100606.94
2019-02-03T04:37:49.775Z,100613.52
2019-02-03T04:39:51.187Z,100620.61
2019-02-03T04:41:52.553Z,100613.77
2019-02-03T04:43:53.916Z,100619.14
2019-02-03T04:45:55.345Z,100624.89
2019-02-03T04:47:56.778Z,100628.30
2019-02-03T04:49:58.144Z,100636.48
2019-02-03T04:51:59.531Z,100637.36
2019-02-03T04:54:00.963Z,100643.13
2019-02-03T04:56:02.919Z,100647.39
2019-02-03T04:58:04.278Z,100646.17
2019-02-03T05:00:13.763Z,100652.30
2019-02-03T05:02:15.122Z,100653.23
2019-02-03T05:04:16.485Z,100654.84
2019-02-03T05:06:18.329Z,100647.10
2019-02-03T05:08:19.722Z,100666.81
2019-02-03T05:10:21.353Z,100668.50
2019-02-03T05:12:22.789Z,100671.84
2019-02-03T05:14:24.191Z,100670.38
2019-02-03T05:16:25.541Z,100678.53
2019-02-03T05:18:26.966Z,100681.89
2019-02-03T05:20:28.336Z,100683.84
2019-02-03T05:22:29.717Z,100688.02
2019-02-03T05:24:31.197Z,100693.91
2019-02-03T05:26:32.575Z,100694.14
2019-02-03T05:28:33.940Z,100695.03
2019-02-03T05:30:37.274Z,100696.29
2019-02-03T05:32:38.740Z,100701.03
2019-02-03T05:34:40.197Z,100704.00
2019-02-03T05:36:41.552Z,100708.21
2019-02-03T05:38:42.932Z,100702.09
2019-02-03T05:40:44.356Z,100699.09
2019-02-03T05:42:45.723Z,100698.72
2019-02-03T05:44:47.109Z,100707.24
2019-02-03T05:46:48.703Z,100701.28
2019-02-03T05:48:50.085Z,100697.39
2019-02-03T05:50:51.863Z,100698.00
2019-02-03T05:52:53.837Z,100696.70
2019-02-03T05:54:55.288Z,100704.33
2019-02-03T05:56:56.667Z,100702.94
2019-02-03T05:58:58.080Z,100703.80
2019-02-03T06:00:59.464Z,100709.27
2019-02-03T06:03:00.865Z,100710.03
2019-02-03T06:05:03.927Z,100699.97
2019-02-03T06:07:05.341Z,100702.13
2019-02-03T06:09:07.211Z,100708.49
2019-02-03T06:11:08.578Z,100715.31
2019-02-03T06:13:10.183Z,100719.33
2019-02-03T06:15:11.953Z,100720.34
2019-02-03T06:17:13.530Z,100723.06
2019-02-03T06:19:14.947Z,100732.46
2019-02-03T06:21:16.763Z,100732.37
2019-02-03T06:23:18.173Z,100737.00
2019-02-03T06:25:19.647Z,100733.67
2019-02-03T06:27:21.411Z,100739.40
2019-02-03T06:29:22.863Z,100746.09
2019-02-03T06:31:24.243Z,100747.58
2019-02-03T06:33:25.649Z,100751.66
2019-02-03T06:35:27.024Z,100757.91
2019-02-03T06:37:28.458Z,100756.91
2019-02-03T06:39:29.914Z,100763.31
2019-02-03T06:41:31.286Z,100766.07
2019-02-03T06:43:32.652Z,100772.16
2019-02-03T06:45:38.802Z,100767.41
2019-02-03T06:47:40.171Z,100777.31
2019-02-03T06:49:41.678Z,100777.06
2019-02-03T06:51:43.054Z,100779.83
2019-02-03T06:53:44.433Z,100786.34
2019-02-03T06:55:45.843Z,100791.46
2019-02-03T06:57:47.221Z,100796.13
2019-02-03T06:59:51.086Z,100798.08
2019-02-03T07:01:51.884Z,100800.51
2019-02-03T07:03:53.715Z,100802.45
2019-02-03T07:05:55.092Z,100807.78
2019-02-03T07:07:56.783Z,100809.27
2019-02-03T07:10:00.708Z,100812.38
2019-02-03T07:12:01.441Z,100815.00
2019-02-03T07:14:03.558Z,100823.61
2019-02-03T07:16:04.945Z,100830.23
2019-02-03T07:18:06.316Z,100832.24
2019-02-03T07:20:16.543Z,100836.35
2019-02-03T07:22:17.910Z,100846.83
2019-02-03T07:24:19.285Z,100849.42
2019-02-03T07:26:20.799Z,100858.06
2019-02-03T07:28:22.168Z,100855.59
2019-02-03T07:30:25.929Z,100852.84
2019-02-03T07:32:27.609Z,100847.70
2019-02-03T07:34:29.086Z,100848.61
2019-02-03T07:36:30.539Z,100851.60
2019-02-03T07:38:31.923Z,100855.75
2019-02-03T07:40:33.359Z,100863.09
2019-02-03T07:42:34.739Z,100864.05
2019-02-03T07:44:36.110Z,100856.20
2019-02-03T07:46:37.507Z,100864.77
2019-02-03T07:48:39.004Z,100854.13
2019-02-03T07:50:40.783Z,100849.28
2019-02-03T07:52:42.207Z,100849.85
2019-02-03T07:54:43.574Z,100847.41
2019-02-03T07:56:45.000Z,100851.78
2019-02-03T07:58:46.708Z,100846.23
2019-02-03T08:00:48.096Z,100844.48
2019-02-03T08:02:49.465Z,100838.97
2019-02-03T08:04:50.858Z,100842.89
2019-02-03T08:06:52.235Z,100842.25
2019-02-03T08:08:53.652Z,100850.99
2019-02-03T08:10:55.069Z,100848.32
2019-02-03T08:12:56.580Z,100849.91
2019-02-03T08:14:57.970Z,100844.70
2019-02-03T08:16:59.755Z,100849.01
2019-02-03T08:19:01.186Z,100850.95
2019-02-03T08:21:02.573Z,100841.67
2019-02-03T08:23:04.084Z,100844.00
2019-02-03T08:25:10.468Z,100843.67
2019-02-03T08:27:12.073Z,100835.12
2019-02-03T08:29:14.728Z,100832.52
2019-02-03T08:31:16.492Z,100832.31
2019-02-03T08:33:17.858Z,100824.97
2019-02-03T08:35:20.096Z,100829.99
2019-02-03T08:37:21.699Z,100829.34
2019-02-03T08:39:23.067Z,100828.69
2019-02-03T08:41:24.496Z,100833.63
2019-02-03T08:43:25.888Z,100833.59
2019-02-03T08:45:27.253Z,100835.94
2019-02-03T08:47:28.682Z,100841.70
2019-02-03T08:49:30.105Z,100843.14
2019-02-03T08:51:32.398Z,100852.47
2019-02-03T08:53:33.942Z,100867.56
2019-02-03T08:55:35.375Z,100874.70
2019-02-03T08:57:36.736Z,100894.42
2019-02-03T08:59:38.099Z,100915.48
2019-02-03T09:01:40.055Z,100930.92
2019-02-03T09:03:41.420Z,100935.86
2019-02-03T09:05:42.789Z,100938.42
2019-02-03T09:07:44.296Z,100942.25
2019-02-03T09:09:45.675Z,100950.59
2019-02-03T09:11:47.162Z,100960.30
2019-02-03T09:13:48.586Z,100975.98
2019-02-03T09:15:51.966Z,100991.10
2019-02-03T09:17:53.259Z,100995.08
2019-02-03T09:19:57.969Z,101003.70
2019-02-03T09:21:58.330Z,101002.56
2019-02-03T09:23:59.714Z,101002.34
2019-02-03T09:26:01.130Z,101003.70
2019-02-03T09:28:03.538Z,100999.56
2019-02-03T09:30:14.113Z,101002.53
2019-02-03T09:32:15.491Z,100998.02
2019-02-03T09:34:17.129Z,100988.88
2019-02-03T09:36:18.606Z,100986.52
2019-02-03T09:38:20.144Z,100983.23
2019-02-03T09:40:28.004Z,100982.31
2019-02-03T09:42:29.374Z,100983.76
2019-02-03T09:44:30.798Z,100981.61
2019-02-03T09:46:32.229Z,100988.02
2019-02-03T09:48:33.639Z,100976.20
2019-02-03T09:50:35.231Z,100972.72
2019-02-03T09:52:36.609Z,100953.55
2019-02-03T09:54:37.969Z,100969.50
2019-02-03T09:56:39.478Z,100973.58
2019-02-03T09:58:40.842Z,100972.94
2019-02-03T10:00:42.200Z,100977.16
2019-02-03T10:02:43.813Z,100971.68
2019-02-03T10:04:45.180Z,100977.69
2019-02-03T10:06:46.943Z,100987.22
2019-02-03T10:08:48.375Z,100984.06
2019-02-03T10:10:49.771Z,100994.01
2019-02-03T10:12:51.245Z,100996.18
2019-02-03T10:14:52.643Z,100998.20
2019-02-03T10:16:54.084Z,100999.53
2019-02-03T10:18:55.464Z,100995.37
2019-02-03T10:20:56.834Z,101002.16
2019-02-03T10:23:01.069Z,101002.16
2019-02-03T10:25:10.830Z,101002.77
2019-02-03T10:27:14.076Z,101007.48
2019-02-03T10:29:15.731Z,101006.83
2019-02-03T10:31:19.738Z,101011.73
2019-02-03T10:33:22.114Z,101007.19
2019-02-03T10:35:29.939Z,101015.84
2019-02-03T10:37:32.363Z,101013.44
2019-02-03T10:39:34.830Z,101016.41
2019-02-03T10:41:36.991Z,101013.42
2019-02-03T10:43:39.126Z,101020.41
2019-02-03T10:45:41.080Z,101020.31
2019-02-03T10:47:43.279Z,101018.13
2019-02-03T10:49:46.757Z,101020.70
2019-02-03T10:51:48.003Z,101024.63
2019-02-03T10:53:49.430Z,101022.45
2019-02-03T10:55:51.119Z,101028.13
2019-02-03T10:57:53.140Z,101024.17
2019-02-03T10:59:54.783Z,101030.95
2019-02-03T11:01:56.737Z,101033.00
2019-02-03T11:03:58.312Z,101029.89
2019-02-03T11:06:00.216Z,101030.56
2019-02-03T11:08:02.044Z,101030.41
2019-02-03T11:10:09.210Z,101030.57
2019-02-03T11:12:10.814Z,101032.28
2019-02-03T11:14:12.690Z,101031.52
2019-02-03T11:16:14.441Z,101032.41
2019-02-03T11:18:16.345Z,101033.75
2019-02-03T11:20:24.157Z,101037.97
2019-02-03T11:22:26.211Z,101034.92
2019-02-03T11:24:27.860Z,101040.52
2019-02-03T11:26:29.874Z,101029.36
2019-02-03T11:28:31.359Z,101029.86
2019-02-03T11:30:33.025Z,101030.93
2019-02-03T11:32:34.479Z,101031.13
2019-02-03T11:34:35.913Z,101035.25
2019-02-03T11:36:37.301Z,101028.45
2019-02-03T11:38:38.742Z,101034.17
2019-02-03T11:40:40.108Z,101031.38
2019-02-03T11:42:41.555Z,101033.52
2019-02-03T11:44:42.997Z,101031.11
2019-02-03T11:46:44.379Z,101033.59
2019-02-03T11:48:45.764Z,101040.84
2019-02-03T11:50:48.793Z,101041.09
2019-02-03T11:52:50.166Z,101045.63
2019-02-03T11:54:51.532Z,101051.61
2019-02-03T11:56:53.269Z,101057.86
2019-02-03T11:58:54.660Z,101059.10
2019-02-03T12:00:56.229Z,101064.08
2019-02-03T12:02:57.884Z,101064.78
2019-02-03T12:04:59.314Z,101075.47
2019-02-03T12:07:00.704Z,101073.98
2019-02-03T12:09:06.092Z,101070.87
2019-02-03T12:11:07.530Z,101073.84
2019-02-03T12:13:08.892Z,101080.23
2019-02-03T12:15:17.700Z,101077.25
2019-02-03T12:17:19.203Z,101077.58
2019-02-03T12:19:20.639Z,101083.75
2019-02-03T12:21:22.032Z,101080.58
2019-02-03T12:23:23.508Z,101082.58
2019-02-03T12:25:35.808Z,101085.13
2019-02-03T12:27:38.852Z,101089.18
2019-02-03T12:29:40.373Z,101091.75
2019-02-03T12:31:41.882Z,101095.33
2019-02-03T12:33:43.256Z,101094.81
2019-02-03T12:35:44.684Z,101093.97
2019-02-03T12:37:46.453Z,101096.72
2019-02-03T12:39:47.884Z,101099.08
2019-02-03T12:41:49.255Z,101098.59
2019-02-03T12:43:50.637Z,101099.54
2019-02-03T12:45:52.466Z,101098.48
2019-02-03T12:47:54.141Z,101094.23
2019-02-03T12:49:55.506Z,101092.23
2019-02-03T12:51:56.942Z,101093.64
2019-02-03T12:53:58.392Z,101095.91
2019-02-03T12:55:59.759Z,101092.23
2019-02-03T12:58:01.349Z,101099.65
2019-02-03T13:00:13.643Z,101100.70
2019-02-03T13:02:15.117Z,101095.78
2019-02-03T13:04:16.489Z,101098.81
2019-02-03T13:06:17.929Z,101097.52
2019-02-03T13:08:19.363Z,101103.73
2019-02-03T13:10:25.138Z,101107.02
2019-02-03T13:12:27.129Z,101105.31
2019-02-03T13:14:30.509Z,101114.64
2019-02-03T13:16:32.035Z,101118.20
2019-02-03T13:18:33.622Z,101122.83
2019-02-03T13:20:35.229Z,101123.16
2019-02-03T13:22:36.608Z,101128.25
2019-02-03T13:24:38.024Z,101136.06
2019-02-03T13:26:39.409Z,101131.73
2019-02-03T13:28:40.777Z,101129.98
2019-02-03T13:30:48.021Z,101137.91
2019-02-03T13:32:49.404Z,101136.13
2019-02-03T13:34:50.791Z,101137.23
2019-02-03T13:36:54.267Z,101140.18
2019-02-03T13:38:55.632Z,101142.02
2019-02-03T13:40:57.014Z,101144.00
2019-02-03T13:42:58.645Z,101141.72
2019-02-03T13:45:00.189Z,101148.41
2019-02-03T13:47:01.574Z,101156.72
2019-02-03T13:49:03.410Z,101154.82
2019-02-03T13:51:04.816Z,101152.91
2019-02-03T13:53:06.271Z,101149.33
2019-02-03T13:55:09.715Z,101157.22
2019-02-03T13:57:11.100Z,101158.25
2019-02-03T13:59:12.466Z,101165.85
2019-02-03T14:01:14.191Z,101170.75
2019-02-03T14:03:16.651Z,101172.41
2019-02-03T14:05:18.182Z,101172.73
2019-02-03T14:07:19.618Z,101174.38
2019-02-03T14:09:21.018Z,101177.40
2019-02-03T14:11:23.006Z,101181.27
2019-02-03T14:13:24.799Z,101184.78
2019-02-03T14:15:26.465Z,101192.92
2019-02-03T14:17:27.852Z,101189.73
2019-02-03T14:19:29.302Z,101195.14
2019-02-03T14:21:30.673Z,101202.20
2019-02-03T14:23:32.071Z,101205.81
2019-02-03T14:25:33.499Z,101215.98
2019-02-03T14:27:35.805Z,101218.16
2019-02-03T14:29:37.470Z,101224.45
2019-02-03T14:31:38.912Z,101230.00
2019-02-03T14:33:40.293Z,101229.34
2019-02-03T14:35:41.772Z,101232.22
2019-02-03T14:37:43.316Z,101237.48
2019-02-03T14:39:44.689Z,101243.59
2019-02-03T14:41:46.393Z,101243.27
2019-02-03T14:43:47.796Z,101242.10
2019-02-03T14:45:49.172Z,101241.44
2019-02-03T14:47:51.224Z,101251.99
2019-02-03T14:49:52.622Z,101246.14
2019-02-03T14:51:54.092Z,101246.87
2019-02-03T14:53:55.549Z,101252.02
2019-02-03T14:55:56.926Z,101253.78
2019-02-03T14:57:58.374Z,101259.45
2019-02-03T14:59:59.866Z,101258.19
2019-02-03T15:02:01.362Z,101255.86
2019-02-03T15:04:03.498Z,101258.89
2019-02-03T15:06:06.780Z,101270.23
2019-02-03T15:08:08.280Z,101272.92
2019-02-03T15:10:13.377Z,101275.71
2019-02-03T15:12:14.819Z,101278.94
2019-02-03T15:14:16.281Z,101277.17
2019-02-03T15:16:17.716Z,101278.34
2019-02-03T15:18:19.308Z,101279.00
2019-02-03T15:20:24.110Z,101284.16
2019-02-03T15:22:25.849Z,101285.83
2019-02-03T15:24:27.244Z,101283.69
2019-02-03T15:26:28.647Z,101288.34
2019-02-03T15:28:30.290Z,101291.93
2019-02-03T15:30:42.207Z,101295.48
2019-02-03T15:32:43.702Z,101299.27
2019-02-03T15:34:45.157Z,101309.55
2019-02-03T15:36:46.534Z,101307.23
2019-02-03T15:38:47.912Z,101307.44
2019-02-03T15:40:49.355Z,101306.94
2019-02-03T15:42:50.743Z,101308.20
2019-02-03T15:44:52.537Z,101301.72
2019-02-03T15:46:54.145Z,101309.84
2019-02-03T15:48:55.547Z,101315.05
2019-02-03T15:50:57.026Z,101318.89
2019-02-03T15:52:58.436Z,101325.06
2019-02-03T15:54:59.826Z,101326.24
2019-02-03T15:57:01.365Z,101322.33
2019-02-03T15:59:02.739Z,101327.66
2019-02-03T16:01:04.170Z,101324.87
2019-02-03T16:03:08.573Z,101334.08
2019-02-03T16:05:10.421Z,101333.11
2019-02-03T16:07:11.847Z,101335.05
2019-02-03T16:09:13.298Z,101336.64
2019-02-03T16:11:14.865Z,101336.78
2019-02-03T16:13:16.233Z,101341.06
2019-02-03T16:15:17.813Z,101334.86
2019-02-03T16:17:19.242Z,101341.86
2019-02-03T16:19:20.619Z,101344.95
2019-02-03T16:21:22.281Z,101349.34
2019-02-03T16:23:23.806Z,101352.39
2019-02-03T16:25:25.174Z,101357.95
2019-02-03T16:27:26.664Z,101361.83
2019-02-03T16:29:28.111Z,101355.87
2019-02-03T16:31:29.489Z,101359.81
2019-02-03T16:33:30.869Z,101361.51
2019-02-03T16:35:32.409Z,101367.45
2019-02-03T16:37:33.787Z,101364.62
2019-02-03T16:39:35.151Z,101369.81
2019-02-03T16:41:36.697Z,101369.05
2019-02-03T16:43:48.656Z,101386.25
2019-02-03T16:45:41.439Z,101389.48
2019-02-03T16:47:43.017Z,101393.20
2019-02-03T16:49:44.445Z,101395.78
2019-02-03T16:51:45.819Z,101396.41
2019-02-03T16:53:47.250Z,101398.70
2019-02-03T16:55:48.635Z,101402.31
2019-02-03T16:57:50.116Z,101403.78
2019-02-03T16:59:51.548Z,101406.02
2019-02-03T17:01:52.944Z,101410.52
2019-02-03T17:03:54.322Z,101417.81
2019-02-03T17:05:55.813Z,101424.33
2019-02-03T17:08:00.047Z,101426.93
2019-02-03T17:10:01.670Z,101436.70
2019-02-03T17:12:03.575Z,101444.98
2019-02-03T17:14:05.549Z,101438.17
2019-02-03T17:16:07.025Z,101446.75
2019-02-03T17:18:10.844Z,101449.86
2019-02-03T17:20:12.436Z,101451.48
2019-02-03T17:22:13.825Z,101460.42
2019-02-03T17:24:15.250Z,101472.86
2019-02-03T17:26:16.707Z,101477.41
2019-02-03T17:28:18.192Z,101484.22
2019-02-03T17:30:19.755Z,101488.27
2019-02-03T17:32:21.497Z,101492.33
2019-02-03T17:34:22.984Z,101500.64
2019-02-03T17:36:24.385Z,101508.11
2019-02-03T17:38:25.833Z,101509.39
2019-02-03T17:40:27.213Z,101517.34
2019-02-03T17:42:28.572Z,101520.12
2019-02-03T17:44:30.006Z,101524.02
2019-02-03T17:46:31.393Z,101534.73
2019-02-03T17:48:32.772Z,101533.91
2019-02-03T17:50:34.302Z,101535.23
2019-02-03T17:52:39.012Z,101534.09
2019-02-03T17:54:38.988Z,101540.91
2019-02-03T17:56:40.372Z,101552.58
2019-02-03T17:58:41.994Z,101561.35
2019-02-03T18:00:45.434Z,101558.41
2019-02-03T18:02:46.821Z,101562.01
2019-02-03T18:04:48.183Z,101563.11
2019-02-03T18:06:49.632Z,101564.11
2019-02-03T18:08:51.021Z,101567.84
2019-02-03T18:10:52.476Z,101572.37
2019-02-03T18:12:54.309Z,101566.88
2019-02-03T18:14:55.677Z,101569.95
2019-02-03T18:16:57.361Z,101570.10
2019-02-03T18:18:58.932Z,101575.78
2019-02-03T18:21:00.655Z,101574.66
2019-02-03T18:23:02.725Z,101566.55
2019-02-03T18:25:07.795Z,101572.37
2019-02-03T18:27:09.388Z,101580.33
2019-02-03T18:29:10.788Z,101570.10
2019-02-03T18:31:12.273Z,101570.12
2019-02-03T18:33:13.885Z,101575.31
2019-02-03T18:35:15.663Z,101572.39
2019-02-03T18:37:19.336Z,101574.98
2019-02-03T18:39:20.385Z,101578.06
2019-02-03T18:41:21.776Z,101581.13
2019-02-03T18:43:23.464Z,101582.59
2019-02-03T18:45:25.405Z,101587.64
2019-02-03T18:47:26.976Z,101584.55
2019-02-03T18:49:28.418Z,101582.92
2019-02-03T18:51:29.910Z,101584.40
2019-02-03T18:53:31.590Z,101585.34
2019-02-03T18:55:40.361Z,101588.94
2019-02-03T18:57:41.930Z,101596.55
2019-02-03T18:59:43.329Z,101599.48
2019-02-03T19:01:44.790Z,101612.78
2019-02-03T19:03:46.302Z,101606.28
2019-02-03T19:05:47.674Z,101614.73
2019-02-03T19:07:49.768Z,101617.97
2019-02-03T19:09:51.160Z,101615.53
2019-02-03T19:11:52.996Z,101620.39
2019-02-03T19:13:54.430Z,101622.82
2019-02-03T19:15:55.914Z,101624.47
2019-02-03T19:17:57.363Z,101631.27
2019-02-03T19:19:58.755Z,101633.22
2019-02-03T19:22:00.120Z,101638.23
2019-02-03T19:24:01.583Z,101639.53
2019-02-03T19:26:03.684Z,101645.23
2019-02-03T19:28:05.073Z,101650.89
2019-02-03T19:30:12.124Z,101649.92
2019-02-03T19:32:14.621Z,101656.91
2019-02-03T19:34:16.096Z,101664.70
2019-02-03T19:36:17.567Z,101662.75
2019-02-03T19:38:19.099Z,101664.03
2019-02-03T19:40:29.388Z,101662.40
2019-02-03T19:42:30.782Z,101670.35
2019-02-03T19:44:32.197Z,101674.73
2019-02-03T19:46:33.680Z,101676.36
2019-02-03T19:48:35.070Z,101684.47
2019-02-03T19:50:39.089Z,101681.09
2019-02-03T19:52:40.719Z,101686.91
2019-02-03T19:54:42.088Z,101689.52
2019-02-03T19:56:44.559Z,101690.48
2019-02-03T19:58:45.997Z,101700.06
2019-02-03T20:00:47.361Z,101700.56
2019-02-03T20:02:48.843Z,101707.70
2019-02-03T20:04:50.265Z,101713.69
2019-02-03T20:06:51.764Z,101718.70
2019-02-03T20:08:53.306Z,101727.80
2019-02-03T20:10:54.684Z,101723.44
2019-02-03T20:12:56.685Z,101726.53
2019-02-03T20:15:09.331Z,101731.52
2019-02-03T20:17:01.432Z,101729.58
2019-02-03T20:19:03.218Z,101735.59
2019-02-03T20:21:04.645Z,101745.31
2019-02-03T20:23:06.938Z,101744.52
2019-02-03T20:25:10.507Z,101750.36
2019-02-03T20:27:11.882Z,101753.45
2019-02-03T20:29:13.316Z,101757.17
2019-02-03T20:31:14.686Z,101761.04
2019-02-03T20:33:16.070Z,101754.55
2019-02-03T20:35:20.919Z,101763.64
2019-02-03T20:37:22.324Z,101767.98
2019-02-03T20:39:23.712Z,101770.78
2019-02-03T20:41:25.127Z,101775.16
2019-02-03T20:43:26.499Z,101769.47
2019-02-03T20:45:28.110Z,101773.39
2019-02-03T20:47:29.562Z,101774.66
2019-02-03T20:49:31.008Z,101777.25
2019-02-03T20:51:32.469Z,101782.45
2019-02-03T20:53:33.985Z,101784.09
2019-02-03T20:55:35.372Z,101786.70
2019-02-03T20:57:36.847Z,101789.73
2019-02-03T20:59:38.211Z,101793.84
2019-02-03T21:01:39.927Z,101793.69
2019-02-03T21:03:41.509Z,101797.83
2019-02-03T21:05:42.981Z,101804.16
2019-02-03T21:07:45.233Z,101805.17
2019-02-03T21:09:46.718Z,101811.78
2019-02-03T21:11:48.120Z,101812.93
2019-02-03T21:13:49.561Z,101818.79
2019-02-03T21:15:51.045Z,101814.74
2019-02-03T21:17:52.766Z,101817.50
2019-02-03T21:19:54.292Z,101825.84
2019-02-03T21:21:56.043Z,101825.96
2019-02-03T21:23:57.847Z,101836.71
2019-02-03T21:25:59.539Z,101837.08
2019-02-03T21:28:01.777Z,101842.44
2019-02-03T21:30:26.783Z,101846.41
2019-02-03T21:32:28.583Z,101848.38
2019-02-03T21:34:33.125Z,101859.88
2019-02-03T21:36:33.861Z,101864.94
2019-02-03T21:38:35.535Z,101867.02
2019-02-03T21:40:37.388Z,101873.38
2019-02-03T21:42:39.135Z,101875.00
2019-02-03T21:44:40.897Z,101886.23
2019-02-03T21:46:42.533Z,101881.02
2019-02-03T21:48:44.252Z,101881.72
2019-02-03T21:50:46.005Z,101886.52
2019-02-03T21:52:48.033Z,101888.17
2019-02-03T21:54:49.675Z,101892.84
2019-02-03T21:56:51.441Z,101896.75
2019-02-03T21:58:53.281Z,101898.30
2019-02-03T22:00:55.057Z,101905.00
2019-02-03T22:02:56.996Z,101903.47
2019-02-03T22:04:58.701Z,101907.20
2019-02-03T22:07:00.383Z,101909.95
2019-02-03T22:09:05.300Z,101905.88
2019-02-03T22:11:06.977Z,101901.58
2019-02-03T22:13:08.666Z,101902.20
2019-02-03T22:15:10.642Z,101908.91
2019-02-03T22:17:12.320Z,101910.44
2019-02-03T22:19:14.036Z,101918.19
2019-02-03T22:21:15.753Z,101918.67
2019-02-03T22:23:17.522Z,101919.30
2019-02-03T22:25:19.274Z,101923.78
2019-02-03T22:27:21.519Z,101924.75
2019-02-03T22:29:23.160Z,101931.23
2019-02-03T22:31:24.915Z,101934.55
2019-02-03T22:33:26.697Z,101937.66
2019-02-03T22:35:28.381Z,101940.73
2019-02-03T22:37:30.102Z,101942.72
2019-02-03T22:39:31.767Z,101949.63
2019-02-03T22:41:33.437Z,101947.41
2019-02-03T22:43:35.165Z,101947.32
2019-02-03T22:45:36.863Z,101949.81
2019-02-03T22:47:38.723Z,101957.20
2019-02-03T22:49:40.723Z,101958.51
2019-02-03T22:51:42.365Z,101966.05
2019-02-03T22:53:44.171Z,101964.97
2019-02-03T22:55:45.888Z,101968.94
2019-02-03T22:57:47.644Z,101974.69
2019-02-03T22:59:49.330Z,101971.34
2019-02-03T23:01:51.378Z,101976.56
2019-02-03T23:03:53.054Z,101974.30
2019-02-03T23:05:55.076Z,101976.41
2019-02-03T23:07:56.784Z,101982.69
2019-02-03T23:09:58.492Z,101985.86
2019-02-03T23:12:00.472Z,101985.09